createdAt,value
2023-01-20T00:02:04.970Z,95510.28
2023-01-20T00:04:37.887Z,95510.53
2023-01-20T00:07:10.847Z,95509.78
2023-01-20T00:09:43.747Z,95509.50
2023-01-20T00:12:16.619Z,95513.16
2023-01-20T00:14:49.473Z,95520.19
2023-01-20T00:17:23.763Z,95524.09
2023-01-20T00:19:56.597Z,95522.28
2023-01-20T00:22:29.483Z,95525.13
2023-01-20T00:25:02.359Z,95524.59
2023-01-20T00:27:35.261Z,95528.25
2023-01-20T00:30:09.640Z,95527.22
2023-01-20T00:32:44.988Z,95533.75
2023-01-20T00:35:17.909Z,95535.06
2023-01-20T00:37:50.858Z,95538.44
2023-01-20T00:40:23.723Z,95533.47
2023-01-20T00:42:56.641Z,95539.50
2023-01-20T00:45:29.562Z,95536.34
2023-01-20T00:48:04.166Z,95535.56
2023-01-20T00:50:36.999Z,95541.03
2023-01-20T00:53:10.015Z,95531.66
2023-01-20T00:55:42.885Z,95542.09
2023-01-20T00:58:16.776Z,95547.31
2023-01-20T01:00:50.141Z,95556.19
2023-01-20T01:03:24.472Z,95553.84
2023-01-20T01:06:07.781Z,95561.69
2023-01-20T01:08:41.042Z,95560.09
2023-01-20T01:11:14.907Z,95564.28
2023-01-20T01:13:47.796Z,95564.28
2023-01-20T01:16:20.626Z,95571.59
2023-01-20T01:18:56.215Z,95569.50
2023-01-20T01:21:29.159Z,95573.16
2023-01-20T01:24:02.036Z,95578.38
2023-01-20T01:26:34.930Z,95576.31
2023-01-20T01:29:07.894Z,95584.66
2023-01-20T01:31:40.801Z,95593.28
2023-01-20T01:34:15.334Z,95601.66
2023-01-20T01:36:48.180Z,95597.22
2023-01-20T01:39:21.094Z,95605.06
2023-01-20T01:41:53.980Z,95604.81
2023-01-20T01:44:28.520Z,95612.41
2023-01-20T01:47:01.365Z,95604.56
2023-01-20T01:49:35.932Z,95608.75
2023-01-20T01:52:10.891Z,95611.88
2023-01-20T01:54:45.949Z,95618.91
2023-01-20T01:57:18.914Z,95613.69
2023-01-20T01:59:52.735Z,95612.66
2023-01-20T02:02:26.064Z,95610.03
2023-01-20T02:05:00.757Z,95607.97
2023-01-20T02:07:35.035Z,95612.66
2023-01-20T02:10:08.770Z,95617.63
2023-01-20T02:12:44.363Z,95614.47
2023-01-20T02:15:18.534Z,95618.91
2023-01-20T02:18:11.864Z,95621.28
2023-01-20T02:21:05.592Z,95624.44
2023-01-20T02:23:59.890Z,95626.00
2023-01-20T02:26:58.415Z,95633.34
2023-01-20T02:30:08.281Z,95633.84
2023-01-20T02:32:51.362Z,95635.97
2023-01-20T02:35:33.764Z,95630.50
2023-01-20T02:38:15.412Z,95635.72
2023-01-20T02:40:51.962Z,95635.47
2023-01-20T02:43:31.460Z,95637.06
2023-01-20T02:46:11.080Z,95637.59
2023-01-20T02:48:52.309Z,95642.88
2023-01-20T02:51:28.210Z,95649.13
2023-01-20T02:54:06.419Z,95648.88
2023-01-20T02:56:40.325Z,95652.06
2023-01-20T02:59:16.874Z,95646.06
2023-01-20T03:01:54.688Z,95653.94
2023-01-20T03:04:34.845Z,95653.44
2023-01-20T03:07:10.780Z,95656.56
2023-01-20T03:09:48.749Z,95650.28
2023-01-20T03:12:28.168Z,95656.84
2023-01-20T03:15:01.204Z,95664.47
2023-01-20T03:17:34.889Z,95653.19
2023-01-20T03:20:10.672Z,95661.88
2023-01-20T03:22:43.702Z,95668.13
2023-01-20T03:25:18.895Z,95670.25
2023-01-20T03:27:51.763Z,95671.03
2023-01-20T03:30:25.704Z,95671.81
2023-01-20T03:32:58.886Z,95684.38
2023-01-20T03:35:35.445Z,95682.03
2023-01-20T03:38:10.121Z,95685.44
2023-01-20T03:40:50.043Z,95690.91
2023-01-20T03:43:35.170Z,95691.97
2023-01-20T03:46:15.630Z,95694.06
2023-01-20T03:48:53.830Z,95696.44
2023-01-20T03:51:36.105Z,95693.56
2023-01-20T03:54:12.273Z,95699.56
2023-01-20T03:56:53.033Z,95699.56
2023-01-20T03:59:26.737Z,95699.03
2023-01-20T04:02:04.314Z,95697.75
2023-01-20T04:04:40.479Z,95705.84
2023-01-20T04:07:19.852Z,95703.25
2023-01-20T04:09:55.641Z,95705.31
2023-01-20T04:12:28.647Z,95717.09
2023-01-20T04:15:02.111Z,95719.72
2023-01-20T04:17:35.455Z,95716.31
2023-01-20T04:20:11.478Z,95726.28
2023-01-20T04:22:52.018Z,95727.06
2023-01-20T04:25:27.671Z,95723.66
2023-01-20T04:28:00.557Z,95726.56
2023-01-20T04:30:33.497Z,95736.50
2023-01-20T04:33:06.471Z,95730.75
2023-01-20T04:35:39.303Z,95737.03
2023-01-20T04:38:13.516Z,95734.41
2023-01-20T04:40:46.361Z,95740.44
2023-01-20T04:43:19.215Z,95747.25
2023-01-20T04:45:52.247Z,95741.75
2023-01-20T04:48:25.222Z,95750.38
2023-01-20T04:50:58.145Z,95751.44
2023-01-20T04:53:32.402Z,95750.38
2023-01-20T04:56:05.804Z,95752.50
2023-01-20T04:58:38.744Z,95759.03
2023-01-20T05:01:11.750Z,95764.53
2023-01-20T05:03:44.803Z,95765.59
2023-01-20T05:06:18.915Z,95772.94
2023-01-20T05:08:53.240Z,95766.09
2023-01-20T05:11:26.208Z,95761.63
2023-01-20T05:13:59.055Z,95770.81
2023-01-20T05:16:32.243Z,95775.25
2023-01-20T05:19:05.293Z,95784.94
2023-01-20T05:21:38.221Z,95784.66
2023-01-20T05:24:12.904Z,95787.31
2023-01-20T05:26:45.853Z,95789.09
2023-01-20T05:29:18.727Z,95791.75
2023-01-20T05:31:51.556Z,95794.59
2023-01-20T05:34:24.450Z,95794.88
2023-01-20T05:36:57.327Z,95805.34
2023-01-20T05:39:31.726Z,95809.00
2023-01-20T05:42:04.979Z,95815.28
2023-01-20T05:44:37.824Z,95812.13
2023-01-20T05:47:11.048Z,95818.16
2023-01-20T05:49:43.965Z,95831.28
2023-01-20T05:52:16.930Z,95829.44
2023-01-20T05:54:51.172Z,95834.66
2023-01-20T05:57:25.362Z,95835.97
2023-01-20T05:59:58.244Z,95832.78
2023-01-20T06:02:31.813Z,95850.91
2023-01-20T06:05:05.143Z,95852.22
2023-01-20T06:07:38.010Z,95850.91
2023-01-20T06:10:13.479Z,95860.06
2023-01-20T06:12:53.173Z,95860.84
2023-01-20T06:15:26.488Z,95862.44
2023-01-20T06:17:59.350Z,95866.38
2023-01-20T06:20:32.254Z,95876.63
2023-01-20T06:23:05.128Z,95882.88
2023-01-20T06:25:39.794Z,95889.19
2023-01-20T06:28:12.628Z,95896.53
2023-01-20T06:30:45.516Z,95890.47
2023-01-20T06:33:18.400Z,95893.38
2023-01-20T06:35:54.590Z,95897.56
2023-01-20T06:38:29.870Z,95903.34
2023-01-20T06:41:06.464Z,95907.25
2023-01-20T06:43:41.962Z,95913.31
2023-01-20T06:46:17.259Z,95916.19
2023-01-20T06:48:50.141Z,95912.25
2023-01-20T06:51:23.431Z,95921.16
2023-01-20T06:53:56.401Z,95927.47
2023-01-20T06:56:30.714Z,95925.09
2023-01-20T06:59:03.678Z,95932.72
2023-01-20T07:01:36.560Z,95930.88
2023-01-20T07:04:13.595Z,95935.31
2023-01-20T07:06:46.586Z,95948.97
2023-01-20T07:09:19.547Z,95951.34
2023-01-20T07:11:53.873Z,95955.25
2023-01-20T07:14:26.723Z,95959.97
2023-01-20T07:16:59.609Z,95964.97
2023-01-20T07:19:32.481Z,95963.66
2023-01-20T07:22:05.359Z,95966.00
2023-01-20T07:24:38.248Z,95968.88
2023-01-20T07:27:12.760Z,95971.00
2023-01-20T07:29:45.625Z,95978.31
2023-01-20T07:32:18.535Z,95982.00
2023-01-20T07:34:51.751Z,95989.31
2023-01-20T07:37:24.717Z,95990.13
2023-01-20T07:39:57.747Z,95994.84
2023-01-20T07:42:31.997Z,95998.25
2023-01-20T07:45:05.794Z,96001.94
2023-01-20T07:47:38.688Z,96010.31
2023-01-20T07:50:12.364Z,96013.47
2023-01-20T07:52:45.511Z,96015.06
2023-01-20T07:55:18.346Z,96012.38
2023-01-20T07:57:52.731Z,96016.34
2023-01-20T08:00:25.995Z,96014.22
2023-01-20T08:02:58.888Z,96014.75
2023-01-20T08:05:33.347Z,96028.66
2023-01-20T08:08:06.626Z,96031.03
2023-01-20T08:10:39.520Z,96041.50
2023-01-20T08:13:14.254Z,96040.44
2023-01-20T08:15:47.119Z,96044.34
2023-01-20T08:18:20.025Z,96044.63
2023-01-20T08:20:53.222Z,96048.78
2023-01-20T08:23:26.071Z,96053.25
2023-01-20T08:25:59.964Z,96056.63
2023-01-20T08:28:37.536Z,96056.06
2023-01-20T08:31:12.794Z,96062.84
2023-01-20T08:33:46.735Z,96074.66
2023-01-20T08:36:21.529Z,96083.31
2023-01-20T08:38:56.225Z,96103.03
2023-01-20T08:41:31.696Z,96090.34
2023-01-20T08:44:10.340Z,96093.72
2023-01-20T08:46:44.458Z,96101.81
2023-01-20T08:49:18.491Z,96111.00
2023-01-20T08:51:54.009Z,96115.97
2023-01-20T08:54:29.404Z,96114.59
2023-01-20T08:57:02.316Z,96119.53
2023-01-20T08:59:36.749Z,96122.63
2023-01-20T09:02:10.885Z,96125.47
2023-01-20T09:04:43.787Z,96114.31
2023-01-20T09:07:17.216Z,96118.50
2023-01-20T09:09:50.267Z,96124.25
2023-01-20T09:12:23.326Z,96123.91
2023-01-20T09:14:57.567Z,96122.75
2023-01-20T09:17:30.481Z,96121.63
2023-01-20T09:20:03.662Z,96120.50
2023-01-20T09:22:36.584Z,96133.09
2023-01-20T09:25:10.423Z,96134.34
2023-01-20T09:27:43.291Z,96144.56
2023-01-20T09:30:18.201Z,96145.28
2023-01-20T09:32:53.202Z,96150.22
2023-01-20T09:35:26.606Z,96143.59
2023-01-20T09:38:22.469Z,96150.38
2023-01-20T09:41:22.434Z,96155.34
2023-01-20T09:44:03.216Z,96153.69
2023-01-20T09:47:12.755Z,96158.94
2023-01-20T09:50:24.230Z,96160.72
2023-01-20T09:53:06.177Z,96166.25
2023-01-20T09:55:44.973Z,96161.75
2023-01-20T09:58:25.603Z,96158.59
2023-01-20T10:01:09.993Z,96172.59
2023-01-20T10:03:50.019Z,96171.00
2023-01-20T10:06:27.565Z,96175.28
2023-01-20T10:09:06.172Z,96175.56
2023-01-20T10:11:44.388Z,96171.13
2023-01-20T10:14:24.260Z,96177.47
2023-01-20T10:17:05.588Z,96173.25
2023-01-20T10:19:46.679Z,96179.31
2023-01-20T10:22:27.335Z,96172.19
2023-01-20T10:25:07.199Z,96172.19
2023-01-20T10:27:46.569Z,96173.78
2023-01-20T10:30:22.749Z,96175.84
2023-01-20T10:33:01.903Z,96180.28
2023-01-20T10:35:40.376Z,96177.59
2023-01-20T10:38:22.295Z,96174.09
2023-01-20T10:40:58.377Z,96178.81
2023-01-20T10:43:32.140Z,96178.69
2023-01-20T10:46:20.696Z,96184.41
2023-01-20T10:49:16.285Z,96186.69
2023-01-20T10:52:05.935Z,96174.97
2023-01-20T10:54:47.533Z,96175.41
2023-01-20T10:57:20.710Z,96183.00
2023-01-20T10:59:57.314Z,96176.56
2023-01-20T11:02:32.104Z,96180.41
2023-01-20T11:05:17.253Z,96177.72
2023-01-20T11:07:55.135Z,96177.84
2023-01-20T11:10:30.318Z,96180.91
2023-01-20T11:13:03.646Z,96182.91
2023-01-20T11:15:39.085Z,96183.81
2023-01-20T11:18:29.886Z,96183.66
2023-01-20T11:21:05.808Z,96184.84
2023-01-20T11:23:42.001Z,96184.47
2023-01-20T11:26:21.141Z,96193.03
2023-01-20T11:28:56.857Z,96183.91
2023-01-20T11:31:39.478Z,96190.91
2023-01-20T11:34:31.427Z,96192.66
2023-01-20T11:37:18.305Z,96196.50
2023-01-20T11:40:17.031Z,96190.84
2023-01-20T11:42:51.702Z,96196.03
2023-01-20T11:45:32.647Z,96186.31
2023-01-20T11:48:16.941Z,96191.25
2023-01-20T11:50:54.482Z,96190.88
2023-01-20T11:53:31.623Z,96198.59
2023-01-20T11:56:18.077Z,96196.84
2023-01-20T11:58:55.453Z,96187.72
2023-01-20T12:01:30.430Z,96196.84
2023-01-20T12:04:24.399Z,96194.28
2023-01-20T12:07:01.666Z,96205.56
2023-01-20T12:09:38.499Z,96196.41
2023-01-20T12:12:21.970Z,96196.78
2023-01-20T12:15:01.506Z,96191.06
2023-01-20T12:17:42.469Z,96190.44
2023-01-20T12:20:23.696Z,96192.81
2023-01-20T12:23:08.886Z,96191.72
2023-01-20T12:25:50.137Z,96203.44
2023-01-20T12:28:29.540Z,96200.59
2023-01-20T12:31:04.585Z,96196.97
2023-01-20T12:33:40.177Z,96201.31
2023-01-20T12:36:50.408Z,96198.47
2023-01-20T12:39:59.245Z,96194.84
2023-01-20T12:43:10.823Z,96198.66
2023-01-20T12:46:06.150Z,96198.28
2023-01-20T12:48:50.712Z,96210.88
2023-01-20T12:51:37.092Z,96209.72
2023-01-20T12:54:48.279Z,96214.94
2023-01-20T12:57:37.494Z,96210.09
2023-01-20T13:00:33.236Z,96212.94
2023-01-20T13:03:29.447Z,96206.72
2023-01-20T13:06:33.332Z,96203.47
2023-01-20T13:09:19.692Z,96200.25
2023-01-20T13:12:06.446Z,96207.75
2023-01-20T13:14:43.888Z,96203.16
2023-01-20T13:17:29.160Z,96190.56
2023-01-20T13:20:06.060Z,96201.25
2023-01-20T13:22:39.293Z,96200.25
2023-01-20T13:25:17.195Z,96206.44
2023-01-20T13:27:54.428Z,96198.28
2023-01-20T13:30:43.051Z,96200.44
2023-01-20T13:33:19.763Z,96212.41
2023-01-20T13:35:54.501Z,96208.97
2023-01-20T13:38:30.923Z,96216.69
2023-01-20T13:41:06.158Z,96215.41
2023-01-20T13:43:50.392Z,96218.81
2023-01-20T13:46:49.327Z,96221.47
2023-01-20T13:49:52.132Z,96220.22
2023-01-20T13:53:17.164Z,96222.84
2023-01-20T13:55:55.852Z,96222.56
2023-01-20T13:58:30.249Z,96223.34
2023-01-20T14:01:04.896Z,96227.84
2023-01-20T14:03:39.941Z,96228.84
2023-01-20T14:06:23.714Z,96228.56
2023-01-20T14:08:58.150Z,96230.63
2023-01-20T14:11:31.439Z,96238.47
2023-01-20T14:14:06.516Z,96241.34
2023-01-20T14:16:43.448Z,96231.25
2023-01-20T14:19:23.390Z,96238.31
2023-01-20T14:21:58.142Z,96237.16
2023-01-20T14:24:37.261Z,96239.44
2023-01-20T14:27:15.217Z,96249.94
2023-01-20T14:29:49.975Z,96246.13
2023-01-20T14:32:26.307Z,96244.97
2023-01-20T14:34:59.688Z,96247.53
2023-01-20T14:37:35.914Z,96249.22
2023-01-20T14:40:24.025Z,96250.41
2023-01-20T14:42:57.850Z,96253.28
2023-01-20T14:45:33.351Z,96251.91
2023-01-20T14:48:07.192Z,96256.91
2023-01-20T14:50:41.317Z,96256.63
2023-01-20T14:53:15.282Z,96262.72
2023-01-20T14:56:02.000Z,96260.53
2023-01-20T14:58:36.438Z,96265.38
2023-01-20T15:01:22.116Z,96272.72
2023-01-20T15:03:59.789Z,96270.66
2023-01-20T15:06:32.790Z,96269.09
2023-01-20T15:09:25.952Z,96267.00
2023-01-20T15:12:36.175Z,96277.63
2023-01-20T15:15:28.089Z,96271.88
2023-01-20T15:18:19.990Z,96289.94
2023-01-20T15:21:03.894Z,96288.97
2023-01-20T15:23:45.899Z,96284.81
2023-01-20T15:26:27.005Z,96289.31
2023-01-20T15:29:01.261Z,96291.00
2023-01-20T15:31:34.151Z,96287.66
2023-01-20T15:34:07.169Z,96290.88
2023-01-20T15:36:40.253Z,96288.31
2023-01-20T15:39:13.462Z,96293.38
2023-01-20T15:41:47.607Z,96300.31
2023-01-20T15:44:22.088Z,96307.56
2023-01-20T15:46:58.045Z,96295.22
2023-01-20T15:49:30.912Z,96309.81
2023-01-20T15:52:03.811Z,96311.75
2023-01-20T15:54:36.713Z,96314.47
2023-01-20T15:57:13.942Z,96301.03
2023-01-20T15:59:50.179Z,96307.66
2023-01-20T16:02:26.982Z,96312.47
2023-01-20T16:05:00.034Z,96318.63
2023-01-20T16:07:32.948Z,96316.81
2023-01-20T16:10:06.329Z,96318.75
2023-01-20T16:12:39.183Z,96320.38
2023-01-20T16:15:17.958Z,96319.09
2023-01-20T16:17:52.795Z,96322.09
2023-01-20T16:20:26.579Z,96333.53
2023-01-20T16:22:59.494Z,96338.09
2023-01-20T16:25:32.863Z,96342.94
2023-01-20T16:28:13.815Z,96341.44
2023-01-20T16:30:49.053Z,96338.13
2023-01-20T16:33:24.094Z,96345.88
2023-01-20T16:35:57.639Z,96347.56
2023-01-20T16:38:30.597Z,96348.75
2023-01-20T16:41:05.959Z,96353.88
2023-01-20T16:43:41.008Z,96358.19
2023-01-20T16:46:16.711Z,96355.63
2023-01-20T16:48:50.072Z,96360.22
2023-01-20T16:51:26.269Z,96358.44
2023-01-20T16:54:00.139Z,96364.06
2023-01-20T16:56:33.953Z,96367.59
2023-01-20T16:59:08.150Z,96363.97
2023-01-20T17:01:42.545Z,96368.25
2023-01-20T17:04:15.397Z,96372.53
2023-01-20T17:06:48.329Z,96367.03
2023-01-20T17:09:21.165Z,96371.84
2023-01-20T17:11:54.083Z,96369.75
2023-01-20T17:14:27.084Z,96377.16
2023-01-20T17:17:01.432Z,96385.38
2023-01-20T17:19:34.576Z,96384.09
2023-01-20T17:22:07.544Z,96385.19
2023-01-20T17:24:40.460Z,96385.47
2023-01-20T17:27:13.489Z,96386.28
2023-01-20T17:29:46.350Z,96385.53
2023-01-20T17:32:20.989Z,96379.19
2023-01-20T17:34:53.923Z,96381.06
2023-01-20T17:37:26.804Z,96386.59
2023-01-20T17:40:00.447Z,96390.84
2023-01-20T17:42:33.351Z,96396.63
2023-01-20T17:45:07.553Z,96393.22
2023-01-20T17:47:41.837Z,96399.56
2023-01-20T17:50:15.384Z,96392.97
2023-01-20T17:52:48.712Z,96395.63
2023-01-20T17:55:21.786Z,96406.44
2023-01-20T17:57:54.714Z,96396.97
2023-01-20T18:00:27.585Z,96399.63
2023-01-20T18:03:01.827Z,96404.34
2023-01-20T18:05:35.865Z,96405.66
2023-01-20T18:08:08.744Z,96405.13
2023-01-20T18:10:41.783Z,96408.53
2023-01-20T18:13:14.730Z,96400.13
2023-01-20T18:15:47.600Z,96405.41
2023-01-20T18:18:21.800Z,96399.31
2023-01-20T18:20:54.684Z,96396.16
2023-01-20T18:23:27.631Z,96409.84
2023-01-20T18:26:00.487Z,96396.16
2023-01-20T18:28:33.566Z,96406.16
2023-01-20T18:31:09.139Z,96403.78
2023-01-20T18:33:45.356Z,96407.75
2023-01-20T18:36:23.526Z,96416.94
2023-01-20T18:38:59.182Z,96411.66
2023-01-20T18:41:36.409Z,96407.47
2023-01-20T18:44:10.910Z,96412.47
2023-01-20T18:46:43.932Z,96405.09
2023-01-20T18:49:19.130Z,96412.50
2023-01-20T18:51:52.023Z,96414.31
2023-01-20T18:54:25.932Z,96416.97
2023-01-20T18:56:58.823Z,96416.97
2023-01-20T18:59:31.868Z,96420.66
2023-01-20T19:02:04.890Z,96420.69
2023-01-20T19:04:39.359Z,96423.53
2023-01-20T19:07:12.260Z,96422.22
2023-01-20T19:09:45.252Z,96430.94
2023-01-20T19:12:18.184Z,96425.94
2023-01-20T19:14:52.647Z,96431.16
2023-01-20T19:17:26.819Z,96423.78
2023-01-20T19:20:02.069Z,96427.72
2023-01-20T19:22:35.079Z,96423.53
2023-01-20T19:25:08.909Z,96430.38
2023-01-20T19:27:42.171Z,96431.13
2023-01-20T19:30:15.621Z,96427.97
2023-01-20T19:32:48.664Z,96426.13
2023-01-20T19:35:22.970Z,96435.84
2023-01-20T19:37:56.349Z,96431.63
2023-01-20T19:40:29.447Z,96432.41
2023-01-20T19:43:02.669Z,96432.41
2023-01-20T19:45:45.294Z,96437.38
2023-01-20T19:48:18.768Z,96441.28
2023-01-20T19:50:53.149Z,96434.19
2023-01-20T19:53:26.034Z,96447.06
2023-01-20T19:56:03.073Z,96440.75
2023-01-20T19:58:36.266Z,96441.00
2023-01-20T20:01:09.607Z,96438.84
2023-01-20T20:03:43.925Z,96441.19
2023-01-20T20:06:26.980Z,96443.56
2023-01-20T20:09:02.721Z,96446.94
2023-01-20T20:11:36.416Z,96446.13
2023-01-20T20:14:12.127Z,96455.31
2023-01-20T20:16:45.295Z,96452.66
2023-01-20T20:19:20.068Z,96453.97
2023-01-20T20:21:56.338Z,96445.03
2023-01-20T20:24:29.331Z,96451.28
2023-01-20T20:27:02.255Z,96453.63
2023-01-20T20:29:35.171Z,96453.09
2023-01-20T20:32:09.655Z,96455.97
2023-01-20T20:34:42.716Z,96452.53
2023-01-20T20:37:16.988Z,96453.56
2023-01-20T20:39:49.843Z,96446.19
2023-01-20T20:42:22.756Z,96444.88
2023-01-20T20:44:55.644Z,96445.38
2023-01-20T20:47:28.622Z,96443.25
2023-01-20T20:50:01.541Z,96451.34
2023-01-20T20:52:36.165Z,96447.69
2023-01-20T20:55:12.194Z,96446.09
2023-01-20T20:57:45.165Z,96448.22
2023-01-20T21:00:20.948Z,96456.88
2023-01-20T21:02:53.907Z,96452.69
2023-01-20T21:05:26.887Z,96450.00
2023-01-20T21:08:01.483Z,96451.34
2023-01-20T21:10:34.401Z,96453.94
2023-01-20T21:13:08.326Z,96455.22
2023-01-20T21:15:41.414Z,96464.13
2023-01-20T21:18:14.315Z,96464.09
2023-01-20T21:20:47.285Z,96466.97
2023-01-20T21:23:21.611Z,96467.47
2023-01-20T21:25:55.174Z,96470.34
2023-01-20T21:28:28.057Z,96470.84
2023-01-20T21:31:01.092Z,96475.31
2023-01-20T21:33:34.186Z,96463.72
2023-01-20T21:36:09.695Z,96476.03
2023-01-20T21:38:46.363Z,96473.94
2023-01-20T21:41:20.355Z,96460.50
2023-01-20T21:44:12.250Z,96470.22
2023-01-20T21:46:45.139Z,96470.47
2023-01-20T21:49:35.811Z,96467.03
2023-01-20T21:52:38.291Z,96476.50
2023-01-20T21:55:15.976Z,96479.66
2023-01-20T21:57:51.351Z,96472.25
2023-01-20T22:00:24.866Z,96481.97
2023-01-20T22:02:57.769Z,96478.00
2023-01-20T22:05:30.971Z,96486.91
2023-01-20T22:08:03.828Z,96493.19
2023-01-20T22:10:38.175Z,96487.16
2023-01-20T22:13:11.146Z,96492.09
2023-01-20T22:15:44.017Z,96492.09
2023-01-20T22:18:17.158Z,96490.53
2023-01-20T22:20:50.012Z,96486.81
2023-01-20T22:23:22.837Z,96489.44
2023-01-20T22:25:57.147Z,96496.53
2023-01-20T22:28:30.869Z,96496.75
2023-01-20T22:31:06.366Z,96497.25
2023-01-20T22:33:39.652Z,96498.28
2023-01-20T22:36:12.564Z,96497.72
2023-01-20T22:38:45.981Z,96503.84
2023-01-20T22:41:21.981Z,96498.16
2023-01-20T22:43:55.773Z,96505.31
2023-01-20T22:46:29.820Z,96500.44
2023-01-20T22:49:02.737Z,96505.72
2023-01-20T22:51:35.637Z,96495.22
2023-01-20T22:54:11.763Z,96502.53
2023-01-20T22:56:46.105Z,96498.03
2023-01-20T22:59:18.970Z,96499.03
2023-01-20T23:01:51.910Z,96506.06
2023-01-20T23:04:24.753Z,96499.44
2023-01-20T23:06:57.703Z,96506.22
2023-01-20T23:09:30.700Z,96496.97
2023-01-20T23:12:05.742Z,96505.56
2023-01-20T23:14:52.820Z,96498.69
2023-01-20T23:17:25.735Z,96500.44
2023-01-20T23:19:58.967Z,96497.78
2023-01-20T23:22:31.826Z,96504.81
2023-01-20T23:25:04.995Z,96503.69
2023-01-20T23:27:39.722Z,96501.81
2023-01-20T23:30:13.137Z,96496.25
2023-01-20T23:32:46.183Z,96497.81
2023-01-20T23:35:19.007Z,96498.50
2023-01-20T23:37:52.031Z,96485.09
2023-01-20T23:40:26.108Z,96485.84
2023-01-20T23:43:00.526Z,96489.97
2023-01-20T23:45:33.442Z,96489.69
2023-01-20T23:48:06.909Z,96490.38
2023-01-20T23:50:39.948Z,96492.72
2023-01-20T23:53:12.928Z,96489.78
2023-01-20T23:55:45.814Z,96496.31
2023-01-20T23:58:20.079Z,96498.16
